sensor_id;sensor_type;location;lat;lon;timestamp;pressure;altitude;pressure_sealevel;temperature;humidity
60307;BME280;46155;52.364;6.580;2023-09-19T03:02:29;100453.44;;;14.02;100.00
60307;BME280;46155;52.364;6.580;2023-09-19T03:04:57;100455.97;;;13.99;100.00
60307;BME280;46155;52.364;6.580;2023-09-19T03:07:25;100461.94;;;13.95;100.00
60307;BME280;46155;52.364;6.580;2023-09-19T03:09:51;100451.63;;;14.01;100.00
60307;BME280;46155;52.364;6.580;2023-09-19T03:12:18;100459.47;;;14.00;100.00
60307;BME280;46155;52.364;6.580;2023-09-19T03:14:43;100456.91;;;14.01;100.00
60307;BME280;46155;52.364;6.580;2023-09-19T03:17:09;100453.31;;;13.99;100.00
60307;BME280;46155;52.364;6.580;2023-09-19T03:19:34;100460.13;;;13.94;100.00
60307;BME280;46155;52.364;6.580;2023-09-19T03:21:59;100470.69;;;13.94;100.00
60307;BME280;46155;52.364;6.580;2023-09-19T03:24:25;100468.00;;;13.92;100.00
60307;BME280;46155;52.364;6.580;2023-09-19T03:26:51;100475.72;;;13.88;100.00
60307;BME280;46155;52.364;6.580;2023-09-19T03:29:17;100468.63;;;13.87;100.00
60307;BME280;46155;52.364;6.580;2023-09-19T03:31:42;100463.22;;;13.84;100.00
60307;BME280;46155;52.364;6.580;2023-09-19T03:34:08;100471.16;;;13.84;100.00
60307;BME280;46155;52.364;6.580;2023-09-19T03:36:34;100475.50;;;13.83;100.00
60307;BME280;46155;52.364;6.580;2023-09-19T03:38:59;100477.25;;;13.83;100.00
60307;BME280;46155;52.364;6.580;2023-09-19T03:41:24;100481.75;;;13.85;100.00
60307;BME280;46155;52.364;6.580;2023-09-19T03:43:50;100468.63;;;13.87;100.00
60307;BME280;46155;52.364;6.580;2023-09-19T03:46:15;100462.31;;;13.83;100.00
60307;BME280;46155;52.364;6.580;2023-09-19T03:48:40;100455.91;;;13.76;100.00
60307;BME280;46155;52.364;6.580;2023-09-19T03:51:06;100447.81;;;13.94;100.00
60307;BME280;46155;52.364;6.580;2023-09-19T03:53:31;100451.38;;;13.95;100.00
60307;BME280;46155;52.364;6.580;2023-09-19T03:55:56;100459.88;;;13.88;100.00
60307;BME280;46155;52.364;6.580;2023-09-19T03:58:22;100461.41;;;13.83;100.00
60307;BME280;46155;52.364;6.580;2023-09-19T04:00:47;100462.13;;;13.78;100.00
60307;BME280;46155;52.364;6.580;2023-09-19T04:03:14;100460.13;;;13.73;100.00
60307;BME280;46155;52.364;6.580;2023-09-19T04:05:45;100452.16;;;13.71;100.00
60307;BME280;46155;52.364;6.580;2023-09-19T04:08:11;100455.38;;;13.64;100.00
60307;BME280;46155;52.364;6.580;2023-09-19T04:10:37;100447.91;;;13.54;100.00
60307;BME280;46155;52.364;6.580;2023-09-19T04:13:02;100456.00;;;13.58;100.00
60307;BME280;46155;52.364;6.580;2023-09-19T04:15:29;100463.84;;;13.57;100.00
60307;BME280;46155;52.364;6.580;2023-09-19T04:17:54;100460.09;;;13.52;100.00
60307;BME280;46155;52.364;6.580;2023-09-19T04:20:20;100468.78;;;13.49;100.00
60307;BME280;46155;52.364;6.580;2023-09-19T04:22:48;100482.59;;;13.43;100.00
60307;BME280;46155;52.364;6.580;2023-09-19T04:25:13;100482.53;;;13.42;100.00
60307;BME280;46155;52.364;6.580;2023-09-19T04:27:39;100485.34;;;13.47;100.00
60307;BME280;46155;52.364;6.580;2023-09-19T04:30:07;100496.63;;;13.42;100.00
60307;BME280;46155;52.364;6.580;2023-09-19T04:32:35;100485.03;;;13.39;100.00
60307;BME280;46155;52.364;6.580;2023-09-19T04:35:01;100503.13;;;13.31;100.00
60307;BME280;46155;52.364;6.580;2023-09-19T04:37:30;100496.19;;;13.33;100.00
60307;BME280;46155;52.364;6.580;2023-09-19T04:39:56;100502.44;;;13.35;100.00
60307;BME280;46155;52.364;6.580;2023-09-19T04:42:21;100505.06;;;13.35;100.00
60307;BME280;46155;52.364;6.580;2023-09-19T04:44:50;100515.63;;;13.35;100.00
60307;BME280;46155;52.364;6.580;2023-09-19T04:47:18;100512.69;;;13.29;100.00
60307;BME280;46155;52.364;6.580;2023-09-19T04:49:44;100525.88;;;13.29;100.00
60307;BME280;46155;52.364;6.580;2023-09-19T04:52:09;100514.19;;;13.24;100.00
60307;BME280;46155;52.364;6.580;2023-09-19T04:54:34;100512.44;;;13.23;100.00
60307;BME280;46155;52.364;6.580;2023-09-19T04:57:00;100520.19;;;13.20;100.00
60307;BME280;46155;52.364;6.580;2023-09-19T04:59:26;100513.25;;;13.22;100.00
60307;BME280;46155;52.364;6.580;2023-09-19T05:01:51;100521.09;;;13.20;100.00
60307;BME280;46155;52.364;6.580;2023-09-19T05:04:16;100530.56;;;13.17;100.00
60307;BME280;46155;52.364;6.580;2023-09-19T05:06:42;100526.03;;;13.13;100.00
60307;BME280;46155;52.364;6.580;2023-09-19T05:09:07;100524.00;;;13.07;100.00
60307;BME280;46155;52.364;6.580;2023-09-19T05:11:33;100530.03;;;13.04;100.00
60307;BME280;46155;52.364;6.580;2023-09-19T05:13:59;100533.63;;;13.06;100.00
60307;BME280;46155;52.364;6.580;2023-09-19T05:16:29;100532.59;;;13.03;100.00
60307;BME280;46155;52.364;6.580;2023-09-19T05:18:56;100522.00;;;13.01;100.00
60307;BME280;46155;52.364;6.580;2023-09-19T05:21:23;100530.78;;;13.02;100.00
60307;BME280;46155;52.364;6.580;2023-09-19T05:23:51;100528.91;;;12.99;100.00
60307;BME280;46155;52.364;6.580;2023-09-19T05:26:17;100527.94;;;12.97;100.00
60307;BME280;46155;52.364;6.580;2023-09-19T05:28:43;100528.69;;;12.95;100.00
60307;BME280;46155;52.364;6.580;2023-09-19T05:31:08;100529.31;;;12.89;100.00
60307;BME280;46155;52.364;6.580;2023-09-19T05:33:33;100533.66;;;12.88;100.00
60307;BME280;46155;52.364;6.580;2023-09-19T05:35:59;100539.84;;;12.89;100.00
60307;BME280;46155;52.364;6.580;2023-09-19T05:38:24;100535.69;;;12.94;100.00
60307;BME280;46155;52.364;6.580;2023-09-19T05:40:51;100541.13;;;12.97;100.00
60307;BME280;46155;52.364;6.580;2023-09-19T05:43:16;100534.78;;;12.94;100.00
60307;BME280;46155;52.364;6.580;2023-09-19T05:45:42;100535.72;;;13.14;100.00
60307;BME280;46155;52.364;6.580;2023-09-19T05:48:14;100540.34;;;13.37;100.00
60307;BME280;46155;52.364;6.580;2023-09-19T05:50:41;100537.78;;;13.21;100.00
60307;BME280;46155;52.364;6.580;2023-09-19T05:53:06;100531.44;;;13.16;100.00
60307;BME280;46155;52.364;6.580;2023-09-19T05:55:32;100532.38;;;13.18;100.00
60307;BME280;46155;52.364;6.580;2023-09-19T05:57:58;100526.50;;;13.23;100.00
60307;BME280;46155;52.364;6.580;2023-09-19T06:00:24;100533.50;;;13.23;100.00
60307;BME280;46155;52.364;6.580;2023-09-19T06:02:52;100539.47;;;13.19;100.00
60307;BME280;46155;52.364;6.580;2023-09-19T06:05:18;100539.75;;;13.25;100.00
60307;BME280;46155;52.364;6.580;2023-09-19T06:07:43;100545.16;;;13.28;100.00
60307;BME280;46155;52.364;6.580;2023-09-19T06:10:09;100546.97;;;13.29;100.00
60307;BME280;46155;52.364;6.580;2023-09-19T06:12:42;100549.41;;;13.24;100.00
60307;BME280;46155;52.364;6.580;2023-09-19T06:15:11;100561.13;;;13.31;100.00
60307;BME280;46155;52.364;6.580;2023-09-19T06:17:49;100563.84;;;13.33;100.00
60307;BME280;46155;52.364;6.580;2023-09-19T06:20:15;100563.25;;;13.38;100.00
60307;BME280;46155;52.364;6.580;2023-09-19T06:22:42;100569.63;;;13.43;100.00
60307;BME280;46155;52.364;6.580;2023-09-19T06:25:12;100577.53;;;13.43;100.00
60307;BME280;46155;52.364;6.580;2023-09-19T06:27:41;100578.22;;;13.39;100.00
60307;BME280;46155;52.364;6.580;2023-09-19T06:30:08;100579.06;;;13.38;100.00
60307;BME280;46155;52.364;6.580;2023-09-19T06:32:34;100574.63;;;13.37;100.00
60307;BME280;46155;52.364;6.580;2023-09-19T06:35:00;100572.19;;;13.42;100.00
60307;BME280;46155;52.364;6.580;2023-09-19T06:37:29;100584.59;;;13.45;100.00
60307;BME280;46155;52.364;6.580;2023-09-19T06:39:54;100577.88;;;13.51;100.00
60307;BME280;46155;52.364;6.580;2023-09-19T06:42:19;100581.06;;;13.64;100.00
60307;BME280;46155;52.364;6.580;2023-09-19T06:44:45;100582.31;;;13.72;100.00
60307;BME280;46155;52.364;6.580;2023-09-19T06:47:10;100592.78;;;13.90;100.00
60307;BME280;46155;52.364;6.580;2023-09-19T06:49:36;100590.69;;;14.02;100.00
60307;BME280;46155;52.364;6.580;2023-09-19T06:52:01;100577.69;;;14.07;100.00
60307;BME280;46155;52.364;6.580;2023-09-19T06:54:27;100582.09;;;14.27;100.00
60307;BME280;46155;52.364;6.580;2023-09-19T06:56:56;100593.25;;;14.43;100.00
60307;BME280;46155;52.364;6.580;2023-09-19T06:59:23;100560.31;;;14.33;100.00
60307;BME280;46155;52.364;6.580;2023-09-19T07:01:48;100576.53;;;14.42;100.00
60307;BME280;46155;52.364;6.580;2023-09-19T07:04:16;100568.72;;;14.45;100.00
60307;BME280;46155;52.364;6.580;2023-09-19T07:06:42;100570.06;;;14.57;100.00
60307;BME280;46155;52.364;6.580;2023-09-19T07:09:07;100572.16;;;14.64;100.00
60307;BME280;46155;52.364;6.580;2023-09-19T07:11:33;100573.47;;;14.75;100.00
60307;BME280;46155;52.364;6.580;2023-09-19T07:13:59;100574.53;;;14.79;100.00
60307;BME280;46155;52.364;6.580;2023-09-19T07:16:24;100578.44;;;14.89;100.00
60307;BME280;46155;52.364;6.580;2023-09-19T07:18:54;100575.06;;;14.93;100.00
60307;BME280;46155;52.364;6.580;2023-09-19T07:21:21;100573.16;;;14.89;100.00
60307;BME280;46155;52.364;6.580;2023-09-19T07:23:47;100581.91;;;14.88;100.00
60307;BME280;46155;52.364;6.580;2023-09-19T07:26:12;100579.56;;;14.95;100.00
60307;BME280;46155;52.364;6.580;2023-09-19T07:28:38;100568.19;;;14.98;100.00
60307;BME280;46155;52.364;6.580;2023-09-19T07:31:03;100564.84;;;15.02;100.00
60307;BME280;46155;52.364;6.580;2023-09-19T07:33:30;100570.19;;;15.04;100.00
60307;BME280;46155;52.364;6.580;2023-09-19T07:35:55;100572.94;;;15.07;100.00
60307;BME280;46155;52.364;6.580;2023-09-19T07:38:21;100572.00;;;15.05;100.00
60307;BME280;46155;52.364;6.580;2023-09-19T07:40:46;100578.66;;;15.18;100.00
60307;BME280;46155;52.364;6.580;2023-09-19T07:43:12;100585.75;;;15.19;100.00
60307;BME280;46155;52.364;6.580;2023-09-19T07:45:37;100576.38;;;15.27;100.00
60307;BME280;46155;52.364;6.580;2023-09-19T07:48:02;100596.56;;;15.25;100.00
60307;BME280;46155;52.364;6.580;2023-09-19T07:50:30;100588.00;;;15.32;100.00
60307;BME280;46155;52.364;6.580;2023-09-19T07:52:55;100587.19;;;15.33;100.00
60307;BME280;46155;52.364;6.580;2023-09-19T07:55:21;100583.59;;;15.31;100.00
60307;BME280;46155;52.364;6.580;2023-09-19T07:57:52;100589.59;;;15.27;100.00
60307;BME280;46155;52.364;6.580;2023-09-19T08:00:17;100604.34;;;15.44;100.00
60307;BME280;46155;52.364;6.580;2023-09-19T08:02:43;100604.56;;;15.50;100.00
60307;BME280;46155;52.364;6.580;2023-09-19T08:05:09;100614.94;;;15.44;100.00
60307;BME280;46155;52.364;6.580;2023-09-19T08:07:36;100617.53;;;15.43;100.00
60307;BME280;46155;52.364;6.580;2023-09-19T08:10:06;100612.91;;;15.37;100.00
60307;BME280;46155;52.364;6.580;2023-09-19T08:12:44;100610.47;;;15.43;100.00
60307;BME280;46155;52.364;6.580;2023-09-19T08:15:18;100609.59;;;15.43;100.00
60307;BME280;46155;52.364;6.580;2023-09-19T08:17:47;100618.63;;;15.48;100.00
60307;BME280;46155;52.364;6.580;2023-09-19T08:20:12;100610.84;;;15.53;100.00
60307;BME280;46155;52.364;6.580;2023-09-19T08:22:52;100613.88;;;15.63;100.00
60307;BME280;46155;52.364;6.580;2023-09-19T08:25:19;100608.88;;;15.71;100.00
60307;BME280;46155;52.364;6.580;2023-09-19T08:27:46;100616.28;;;15.80;100.00
60307;BME280;46155;52.364;6.580;2023-09-19T08:30:16;100620.69;;;15.79;100.00
60307;BME280;46155;52.364;6.580;2023-09-19T08:32:41;100625.97;;;15.79;100.00
60307;BME280;46155;52.364;6.580;2023-09-19T08:35:11;100620.69;;;15.79;100.00
60307;BME280;46155;52.364;6.580;2023-09-19T08:37:36;100618.31;;;15.87;100.00
60307;BME280;46155;52.364;6.580;2023-09-19T08:40:02;100612.53;;;15.99;100.00
60307;BME280;46155;52.364;6.580;2023-09-19T08:42:28;100619.13;;;16.10;100.00
60307;BME280;46155;52.364;6.580;2023-09-19T08:44:55;100614.41;;;16.27;100.00
60307;BME280;46155;52.364;6.580;2023-09-19T08:47:40;100619.44;;;16.45;100.00
60307;BME280;46155;52.364;6.580;2023-09-19T08:50:19;100625.16;;;16.58;100.00
60307;BME280;46155;52.364;6.580;2023-09-19T08:52:51;100622.75;;;16.65;100.00
60307;BME280;46155;52.364;6.580;2023-09-19T08:55:23;100620.97;;;16.64;100.00
60307;BME280;46155;52.364;6.580;2023-09-19T08:57:52;100618.97;;;16.84;100.00
60307;BME280;46155;52.364;6.580;2023-09-19T09:00:21;100613.75;;;16.87;100.00
60307;BME280;46155;52.364;6.580;2023-09-19T09:02:48;100609.69;;;16.97;100.00
60307;BME280;46155;52.364;6.580;2023-09-19T09:05:15;100617.88;;;17.05;100.00
60307;BME280;46155;52.364;6.580;2023-09-19T09:07:47;100598.56;;;17.09;100.00
60307;BME280;46155;52.364;6.580;2023-09-19T09:10:14;100620.84;;;17.14;100.00
60307;BME280;46155;52.364;6.580;2023-09-19T09:12:40;100611.88;;;17.11;100.00
60307;BME280;46155;52.364;6.580;2023-09-19T09:15:06;100612.56;;;17.05;100.00
60307;BME280;46155;52.364;6.580;2023-09-19T09:17:33;100619.88;;;17.12;100.00
60307;BME280;46155;52.364;6.580;2023-09-19T09:19:59;100616.66;;;17.23;100.00
60307;BME280;46155;52.364;6.580;2023-09-19T09:22:25;100620.16;;;17.21;100.00
60307;BME280;46155;52.364;6.580;2023-09-19T09:24:54;100614.69;;;17.15;100.00
60307;BME280;46155;52.364;6.580;2023-09-19T09:27:22;100625.00;;;17.06;100.00
60307;BME280;46155;52.364;6.580;2023-09-19T09:29:50;100621.00;;;16.92;100.00
60307;BME280;46155;52.364;6.580;2023-09-19T09:32:17;100617.38;;;16.90;100.00
60307;BME280;46155;52.364;6.580;2023-09-19T09:34:44;100606.78;;;16.90;100.00
60307;BME280;46155;52.364;6.580;2023-09-19T09:37:14;100603.34;;;16.92;100.00
60307;BME280;46155;52.364;6.580;2023-09-19T09:39:40;100604.47;;;17.00;100.00
60307;BME280;46155;52.364;6.580;2023-09-19T09:42:05;100603.94;;;17.12;100.00
60307;BME280;46155;52.364;6.580;2023-09-19T09:44:31;100603.25;;;17.18;100.00
60307;BME280;46155;52.364;6.580;2023-09-19T09:46:57;100613.06;;;17.20;100.00
60307;BME280;46155;52.364;6.580;2023-09-19T09:49:47;100600.78;;;17.24;100.00
60307;BME280;46155;52.364;6.580;2023-09-19T09:52:19;100602.72;;;17.30;100.00
60307;BME280;46155;52.364;6.580;2023-09-19T09:55:02;100601.00;;;17.32;100.00
60307;BME280;46155;52.364;6.580;2023-09-19T09:57:33;100595.44;;;17.23;100.00
60307;BME280;46155;52.364;6.580;2023-09-19T09:59:59;100609.00;;;17.03;100.00
60307;BME280;46155;52.364;6.580;2023-09-19T10:02:42;100601.38;;;17.14;100.00
60307;BME280;46155;52.364;6.580;2023-09-19T10:05:13;100602.53;;;17.24;100.00
60307;BME280;46155;52.364;6.580;2023-09-19T10:07:46;100612.81;;;17.42;100.00
60307;BME280;46155;52.364;6.580;2023-09-19T10:10:31;100611.13;;;17.44;100.00
60307;BME280;46155;52.364;6.580;2023-09-19T10:13:19;100612.94;;;17.46;100.00
60307;BME280;46155;52.364;6.580;2023-09-19T10:15:50;100609.31;;;17.43;100.00
60307;BME280;46155;52.364;6.580;2023-09-19T10:18:24;100605.09;;;17.49;100.00
60307;BME280;46155;52.364;6.580;2023-09-19T10:20:50;100604.38;;;17.55;100.00
60307;BME280;46155;52.364;6.580;2023-09-19T10:23:18;100600.88;;;17.58;100.00
60307;BME280;46155;52.364;6.580;2023-09-19T10:25:56;100611.72;;;17.65;100.00
60307;BME280;46155;52.364;6.580;2023-09-19T10:28:23;100601.75;;;17.57;100.00
60307;BME280;46155;52.364;6.580;2023-09-19T10:30:50;100593.69;;;17.53;100.00
60307;BME280;46155;52.364;6.580;2023-09-19T10:33:18;100605.50;;;17.65;100.00
60307;BME280;46155;52.364;6.580;2023-09-19T10:35:47;100600.31;;;17.68;100.00
60307;BME280;46155;52.364;6.580;2023-09-19T10:38:14;100599.22;;;17.61;100.00
60307;BME280;46155;52.364;6.580;2023-09-19T10:40:42;100592.22;;;17.33;100.00
60307;BME280;46155;52.364;6.580;2023-09-19T10:43:25;100595.31;;;17.19;100.00
60307;BME280;46155;52.364;6.580;2023-09-19T10:45:50;100598.72;;;17.14;100.00
60307;BME280;46155;52.364;6.580;2023-09-19T10:48:18;100600.72;;;17.21;100.00
60307;BME280;46155;52.364;6.580;2023-09-19T10:53:43;100593.81;;;17.28;100.00
60307;BME280;46155;52.364;6.580;2023-09-19T10:56:16;100595.06;;;17.41;100.00
60307;BME280;46155;52.364;6.580;2023-09-19T10:58:44;100593.34;;;17.41;100.00
60307;BME280;46155;52.364;6.580;2023-09-19T11:01:11;100592.69;;;17.50;100.00
60307;BME280;46155;52.364;6.580;2023-09-19T11:03:43;100592.09;;;17.60;100.00
60307;BME280;46155;52.364;6.580;2023-09-19T11:06:14;100592.03;;;17.57;100.00
60307;BME280;46155;52.364;6.580;2023-09-19T11:09:02;100587.47;;;17.53;100.00
60307;BME280;46155;52.364;6.580;2023-09-19T11:30:31;100553.97;;;17.57;100.00
60307;BME280;46155;52.364;6.580;2023-09-19T11:33:20;100562.88;;;17.59;100.00
60307;BME280;46155;52.364;6.580;2023-09-19T11:36:08;100560.19;;;17.57;100.00
60307;BME280;46155;52.364;6.580;2023-09-19T11:49:15;100553.88;;;17.53;100.00
60307;BME280;46155;52.364;6.580;2023-09-19T11:51:45;100548.56;;;17.53;100.00
60307;BME280;46155;52.364;6.580;2023-09-19T11:54:13;100551.16;;;17.52;100.00
60307;BME280;46155;52.364;6.580;2023-09-19T11:56:53;100543.16;;;17.50;99.99
60307;BME280;46155;52.364;6.580;2023-09-19T11:59:27;100559.31;;;17.58;100.00
60307;BME280;46155;52.364;6.580;2023-09-19T12:01:56;100555.88;;;17.61;100.00
60307;BME280;46155;52.364;6.580;2023-09-19T12:04:38;100560.22;;;17.59;100.00
60307;BME280;46155;52.364;6.580;2023-09-19T12:07:11;100558.25;;;17.51;100.00
60307;BME280;46155;52.364;6.580;2023-09-19T12:09:47;100550.28;;;17.51;100.00
60307;BME280;46155;52.364;6.580;2023-09-19T12:12:23;100553.78;;;17.50;100.00
60307;BME280;46155;52.364;6.580;2023-09-19T12:14:49;100553.50;;;17.40;100.00
60307;BME280;46155;52.364;6.580;2023-09-19T12:17:16;100547.28;;;17.39;99.49
60307;BME280;46155;52.364;6.580;2023-09-19T12:19:51;100555.59;;;17.51;100.00
60307;BME280;46155;52.364;6.580;2023-09-19T12:22:16;100550.50;;;17.59;100.00
60307;BME280;46155;52.364;6.580;2023-09-19T12:24:43;100543.59;;;17.66;100.00
60307;BME280;46155;52.364;6.580;2023-09-19T12:27:09;100531.53;;;17.77;100.00
60307;BME280;46155;52.364;6.580;2023-09-19T12:29:44;100539.00;;;17.91;98.69
60307;BME280;46155;52.364;6.580;2023-09-19T12:32:10;100529.56;;;18.02;99.95
60307;BME280;46155;52.364;6.580;2023-09-19T12:34:36;100537.75;;;18.11;100.00
60307;BME280;46155;52.364;6.580;2023-09-19T12:37:07;100530.50;;;18.04;98.74
60307;BME280;46155;52.364;6.580;2023-09-19T12:39:43;100542.84;;;18.02;97.85
60307;BME280;46155;52.364;6.580;2023-09-19T12:42:14;100536.59;;;18.00;97.83
60307;BME280;46155;52.364;6.580;2023-09-19T12:44:41;100533.94;;;18.00;96.76
60307;BME280;46155;52.364;6.580;2023-09-19T12:47:10;100529.66;;;18.05;98.08
60307;BME280;46155;52.364;6.580;2023-09-19T12:49:36;100520.00;;;18.10;98.12
60307;BME280;46155;52.364;6.580;2023-09-19T12:52:01;100519.19;;;18.13;98.69
60307;BME280;46155;52.364;6.580;2023-09-19T12:54:40;100521.81;;;18.11;97.53
60307;BME280;46155;52.364;6.580;2023-09-19T12:57:06;100518.34;;;18.14;97.81
60307;BME280;46155;52.364;6.580;2023-09-19T12:59:31;100531.75;;;18.18;97.63
60307;BME280;46155;52.364;6.580;2023-09-19T13:02:04;100518.31;;;18.12;97.45
60307;BME280;46155;52.364;6.580;2023-09-19T13:04:31;100516.44;;;18.08;97.60
60307;BME280;46155;52.364;6.580;2023-09-19T13:06:57;100513.75;;;18.06;97.37
60307;BME280;46155;52.364;6.580;2023-09-19T13:09:27;100517.44;;;18.12;97.58
60307;BME280;46155;52.364;6.580;2023-09-19T13:12:04;100516.44;;;18.08;98.02
60307;BME280;46155;52.364;6.580;2023-09-19T13:14:32;100514.47;;;18.01;96.80
60307;BME280;46155;52.364;6.580;2023-09-19T13:17:08;100519.66;;;17.95;95.60
60307;BME280;46155;52.364;6.580;2023-09-19T13:19:48;100502.81;;;17.96;96.29
60307;BME280;46155;52.364;6.580;2023-09-19T13:22:43;100501.97;;;17.97;96.22
60307;BME280;46155;52.364;6.580;2023-09-19T13:25:19;100515.25;;;17.97;97.63
60307;BME280;46155;52.364;6.580;2023-09-19T13:30:13;100510.53;;;17.86;97.22
60307;BME280;46155;52.364;6.580;2023-09-19T13:32:38;100513.97;;;17.82;97.61
60307;BME280;46155;52.364;6.580;2023-09-19T13:35:06;100510.28;;;17.77;98.99
60307;BME280;46155;52.364;6.580;2023-09-19T13:37:34;100505.03;;;17.80;98.78
60307;BME280;46155;52.364;6.580;2023-09-19T13:40:01;100519.31;;;17.84;98.88
60307;BME280;46155;52.364;6.580;2023-09-19T13:42:26;100508.66;;;17.82;99.17
60307;BME280;46155;52.364;6.580;2023-09-19T13:44:55;100514.75;;;17.78;98.21
60307;BME280;46155;52.364;6.580;2023-09-19T13:47:20;100511.25;;;17.79;98.57
60307;BME280;46155;52.364;6.580;2023-09-19T13:49:49;100513.00;;;17.80;99.30
60307;BME280;46155;52.364;6.580;2023-09-19T13:52:18;100517.25;;;17.72;98.17
60307;BME280;46155;52.364;6.580;2023-09-19T13:54:43;100529.72;;;17.76;98.29
60307;BME280;46155;52.364;6.580;2023-09-19T13:57:08;100521.59;;;17.70;98.37
60307;BME280;46155;52.364;6.580;2023-09-19T13:59:35;100515.50;;;17.74;97.17
60307;BME280;46155;52.364;6.580;2023-09-19T14:02:00;100515.59;;;17.77;98.81
60307;BME280;46155;52.364;6.580;2023-09-19T14:04:28;100516.50;;;17.78;96.04
60307;BME280;46155;52.364;6.580;2023-09-19T14:06:54;100510.31;;;17.79;97.96
60307;BME280;46155;52.364;6.580;2023-09-19T14:09:20;100509.59;;;17.84;97.14
60307;BME280;46155;52.364;6.580;2023-09-19T14:11:46;100510.34;;;17.80;96.78
60307;BME280;46155;52.364;6.580;2023-09-19T14:14:13;100505.03;;;17.80;96.48
60307;BME280;46155;52.364;6.580;2023-09-19T14:16:39;100510.34;;;17.80;97.71
60307;BME280;46155;52.364;6.580;2023-09-19T14:19:07;100511.13;;;17.76;96.76
60307;BME280;46155;52.364;6.580;2023-09-19T14:21:33;100514.75;;;17.78;97.67
60307;BME280;46155;52.364;6.580;2023-09-19T14:23:58;100511.94;;;17.72;96.92
60307;BME280;46155;52.364;6.580;2023-09-19T14:26:23;100513.63;;;17.70;96.51
60307;BME280;46155;52.364;6.580;2023-09-19T14:28:49;100510.19;;;17.74;96.11
60307;BME280;46155;52.364;6.580;2023-09-19T14:31:14;100512.31;;;17.87;96.99
60307;BME280;46155;52.364;6.580;2023-09-19T14:33:40;100510.78;;;17.96;99.25
60307;BME280;46155;52.364;6.580;2023-09-19T14:36:07;100497.72;;;18.03;97.12
60307;BME280;46155;52.364;6.580;2023-09-19T14:38:35;100498.84;;;18.12;97.23
60307;BME280;46155;52.364;6.580;2023-09-19T14:41:04;100505.94;;;18.14;96.64
60307;BME280;46155;52.364;6.580;2023-09-19T14:43:30;100497.19;;;18.18;97.52
60307;BME280;46155;52.364;6.580;2023-09-19T14:46:02;100494.69;;;18.23;97.41
60307;BME280;46155;52.364;6.580;2023-09-19T14:48:27;100489.38;;;18.23;97.12
60307;BME280;46155;52.364;6.580;2023-09-19T14:50:52;100490.31;;;18.27;97.73
60307;BME280;46155;52.364;6.580;2023-09-19T14:53:18;100486.88;;;18.31;97.22
60307;BME280;46155;52.364;6.580;2023-09-19T14:55:44;100474.50;;;18.33;95.92
60307;BME280;46155;52.364;6.580;2023-09-19T14:58:10;100476.50;;;18.40;97.02
60307;BME280;46155;52.364;6.580;2023-09-19T15:00:37;100468.44;;;18.38;97.38
60307;BME280;46155;52.364;6.580;2023-09-19T15:03:03;100463.31;;;18.45;99.77
60307;BME280;46155;52.364;6.580;2023-09-19T15:05:28;100472.03;;;18.39;97.71
60307;BME280;46155;52.364;6.580;2023-09-19T15:07:56;100469.19;;;18.33;96.99
60307;BME280;46155;52.364;6.580;2023-09-19T15:10:22;100462.94;;;18.29;97.96
60307;BME280;46155;52.364;6.580;2023-09-19T15:12:47;100461.03;;;18.23;98.39
60307;BME280;46155;52.364;6.580;2023-09-19T15:15:13;100473.44;;;18.23;98.08
60307;BME280;46155;52.364;6.580;2023-09-19T15:17:39;100466.25;;;18.19;98.73
60307;BME280;46155;52.364;6.580;2023-09-19T15:20:06;100463.44;;;18.14;98.87
60307;BME280;46155;52.364;6.580;2023-09-19T15:22:36;100457.13;;;18.08;98.16
60307;BME280;46155;52.364;6.580;2023-09-19T15:25:02;100465.84;;;18.03;97.70
60307;BME280;46155;52.364;6.580;2023-09-19T15:27:29;100468.47;;;18.02;97.89
60307;BME280;46155;52.364;6.580;2023-09-19T15:29:56;100467.59;;;18.03;98.49
60307;BME280;46155;52.364;6.580;2023-09-19T15:32:23;100470.25;;;18.03;98.72
60307;BME280;46155;52.364;6.580;2023-09-19T15:34:49;100471.91;;;17.98;97.37
60307;BME280;46155;52.364;6.580;2023-09-19T15:37:14;100477.22;;;17.98;98.46
60307;BME280;46155;52.364;6.580;2023-09-19T15:39:39;100470.97;;;17.96;98.47
60307;BME280;46155;52.364;6.580;2023-09-19T15:42:05;100469.13;;;17.93;98.25
60307;BME280;46155;52.364;6.580;2023-09-19T15:44:30;100473.63;;;17.96;98.45
60307;BME280;46155;52.364;6.580;2023-09-19T15:46:56;100473.00;;;18.06;99.08
60307;BME280;46155;52.364;6.580;2023-09-19T15:49:22;100488.00;;;18.04;99.16
60307;BME280;46155;52.364;6.580;2023-09-19T15:51:48;100496.75;;;18.00;98.77
60307;BME280;46155;52.364;6.580;2023-09-19T15:54:15;100486.81;;;17.93;98.25
60307;BME280;46155;52.364;6.580;2023-09-19T15:56:45;100498.28;;;17.92;97.41
60307;BME280;46155;52.364;6.580;2023-09-19T15:59:12;100498.28;;;17.92;98.56
60307;BME280;46155;52.364;6.580;2023-09-19T16:01:38;100491.88;;;17.83;97.42
60307;BME280;46155;52.364;6.580;2023-09-19T16:04:05;100491.88;;;17.83;98.60
60307;BME280;46155;52.364;6.580;2023-09-19T16:06:34;100499.84;;;17.83;98.41
60307;BME280;46155;52.364;6.580;2023-09-19T16:09:00;100491.78;;;17.80;97.82
60307;BME280;46155;52.364;6.580;2023-09-19T16:11:29;100488.19;;;17.78;98.78
60307;BME280;46155;52.364;6.580;2023-09-19T16:13:55;100491.72;;;17.79;98.37
60307;BME280;46155;52.364;6.580;2023-09-19T16:16:22;100494.34;;;17.77;98.83
60307;BME280;46155;52.364;6.580;2023-09-19T16:18:56;100494.34;;;17.77;98.60
60307;BME280;46155;52.364;6.580;2023-09-19T16:21:30;100498.81;;;17.78;98.96
60307;BME280;46155;52.364;6.580;2023-09-19T16:23:56;100497.97;;;17.79;99.06